sensor_id;sensor_type;location;lat;lon;timestamp;P1;durP1;ratioP1;P2;durP2;ratioP2
2650;SDS011;1335;48.180;16.342;2024-01-30T00:01:57;16.45;;;10.90;;
2650;SDS011;1335;48.180;16.342;2024-01-30T00:04:24;16.40;;;10.13;;
2650;SDS011;1335;48.180;16.342;2024-01-30T00:06:52;13.98;;;9.73;;
2650;SDS011;1335;48.180;16.342;2024-01-30T00:09:20;17.75;;;10.88;;
2650;SDS011;1335;48.180;16.342;2024-01-30T00:11:47;13.80;;;10.60;;
2650;SDS011;1335;48.180;16.342;2024-01-30T00:14:15;15.77;;;10.57;;
2650;SDS011;1335;48.180;16.342;2024-01-30T00:16:43;17.02;;;11.32;;
2650;SDS011;1335;48.180;16.342;2024-01-30T00:19:11;16.25;;;11.48;;
2650;SDS011;1335;48.180;16.342;2024-01-30T00:21:38;17.63;;;10.80;;
2650;SDS011;1335;48.180;16.342;2024-01-30T00:24:06;15.77;;;11.25;;
2650;SDS011;1335;48.180;16.342;2024-01-30T00:26:33;16.00;;;10.95;;
2650;SDS011;1335;48.180;16.342;2024-01-30T00:29:00;18.30;;;10.23;;
2650;SDS011;1335;48.180;16.342;2024-01-30T00:31:29;18.90;;;10.60;;
2650;SDS011;1335;48.180;16.342;2024-01-30T00:33:56;16.48;;;10.77;;
2650;SDS011;1335;48.180;16.342;2024-01-30T00:36:24;15.85;;;10.43;;
2650;SDS011;1335;48.180;16.342;2024-01-30T00:38:51;20.63;;;12.05;;
2650;SDS011;1335;48.180;16.342;2024-01-30T00:41:18;13.73;;;9.80;;
2650;SDS011;1335;48.180;16.342;2024-01-30T00:43:46;17.48;;;11.52;;
2650;SDS011;1335;48.180;16.342;2024-01-30T00:46:13;17.15;;;11.40;;
2650;SDS011;1335;48.180;16.342;2024-01-30T00:48:42;19.88;;;11.68;;
2650;SDS011;1335;48.180;16.342;2024-01-30T00:51:09;17.27;;;11.70;;
2650;SDS011;1335;48.180;16.342;2024-01-30T00:53:36;17.92;;;10.10;;
2650;SDS011;1335;48.180;16.342;2024-01-30T00:56:04;13.70;;;10.30;;
2650;SDS011;1335;48.180;16.342;2024-01-30T00:58:31;14.02;;;10.52;;
2650;SDS011;1335;48.180;16.342;2024-01-30T01:00:59;17.70;;;11.55;;
2650;SDS011;1335;48.180;16.342;2024-01-30T01:03:26;17.02;;;11.07;;
2650;SDS011;1335;48.180;16.342;2024-01-30T01:05:55;15.63;;;11.02;;
2650;SDS011;1335;48.180;16.342;2024-01-30T01:08:22;25.83;;;11.70;;
2650;SDS011;1335;48.180;16.342;2024-01-30T01:10:50;17.60;;;11.00;;
2650;SDS011;1335;48.180;16.342;2024-01-30T01:13:17;16.17;;;11.35;;
2650;SDS011;1335;48.180;16.342;2024-01-30T01:15:45;17.30;;;11.98;;
2650;SDS011;1335;48.180;16.342;2024-01-30T01:18:12;17.23;;;11.18;;
2650;SDS011;1335;48.180;16.342;2024-01-30T01:20:39;12.68;;;10.95;;
2650;SDS011;1335;48.180;16.342;2024-01-30T01:23:08;17.98;;;11.40;;
2650;SDS011;1335;48.180;16.342;2024-01-30T01:25:35;18.20;;;11.40;;
2650;SDS011;1335;48.180;16.342;2024-01-30T01:28:03;17.63;;;11.40;;
2650;SDS011;1335;48.180;16.342;2024-01-30T01:30:30;21.80;;;12.00;;
2650;SDS011;1335;48.180;16.342;2024-01-30T01:32:58;17.75;;;11.07;;
2650;SDS011;1335;48.180;16.342;2024-01-30T01:35:27;17.58;;;11.23;;
2650;SDS011;1335;48.180;16.342;2024-01-30T01:37:54;18.40;;;11.88;;
2650;SDS011;1335;48.180;16.342;2024-01-30T01:40:24;16.10;;;11.65;;
2650;SDS011;1335;48.180;16.342;2024-01-30T01:42:52;16.70;;;11.82;;
2650;SDS011;1335;48.180;16.342;2024-01-30T01:45:20;19.38;;;11.20;;
2650;SDS011;1335;48.180;16.342;2024-01-30T01:47:47;19.50;;;12.05;;
2650;SDS011;1335;48.180;16.342;2024-01-30T01:50:17;13.80;;;10.38;;
2650;SDS011;1335;48.180;16.342;2024-01-30T01:52:45;18.17;;;11.93;;
2650;SDS011;1335;48.180;16.342;2024-01-30T01:55:13;17.98;;;11.80;;
2650;SDS011;1335;48.180;16.342;2024-01-30T01:57:44;15.40;;;11.13;;
2650;SDS011;1335;48.180;16.342;2024-01-30T02:00:11;22.30;;;11.25;;
2650;SDS011;1335;48.180;16.342;2024-01-30T02:02:39;18.45;;;11.82;;
2650;SDS011;1335;48.180;16.342;2024-01-30T02:05:07;16.52;;;11.77;;
2650;SDS011;1335;48.180;16.342;2024-01-30T02:07:35;20.70;;;12.43;;
2650;SDS011;1335;48.180;16.342;2024-01-30T02:10:02;16.10;;;12.18;;
2650;SDS011;1335;48.180;16.342;2024-01-30T02:12:30;19.65;;;11.60;;
2650;SDS011;1335;48.180;16.342;2024-01-30T02:14:58;18.25;;;12.23;;
2650;SDS011;1335;48.180;16.342;2024-01-30T02:17:26;18.90;;;10.98;;
2650;SDS011;1335;48.180;16.342;2024-01-30T02:19:53;15.93;;;11.13;;
2650;SDS011;1335;48.180;16.342;2024-01-30T02:22:22;19.85;;;12.40;;
2650;SDS011;1335;48.180;16.342;2024-01-30T02:24:49;21.63;;;12.15;;
2650;SDS011;1335;48.180;16.342;2024-01-30T02:27:17;19.40;;;11.40;;
2650;SDS011;1335;48.180;16.342;2024-01-30T02:29:44;18.05;;;10.38;;
2650;SDS011;1335;48.180;16.342;2024-01-30T02:32:11;16.85;;;11.95;;
2650;SDS011;1335;48.180;16.342;2024-01-30T02:34:39;19.20;;;11.70;;
2650;SDS011;1335;48.180;16.342;2024-01-30T02:37:06;16.83;;;12.10;;
2650;SDS011;1335;48.180;16.342;2024-01-30T02:39:35;14.85;;;11.55;;
2650;SDS011;1335;48.180;16.342;2024-01-30T02:42:02;15.27;;;11.75;;
2650;SDS011;1335;48.180;16.342;2024-01-30T02:44:30;16.30;;;12.52;;
2650;SDS011;1335;48.180;16.342;2024-01-30T02:46:57;18.27;;;11.50;;
2650;SDS011;1335;48.180;16.342;2024-01-30T02:49:24;21.00;;;12.00;;
2650;SDS011;1335;48.180;16.342;2024-01-30T02:51:53;17.17;;;11.82;;
2650;SDS011;1335;48.180;16.342;2024-01-30T02:54:21;19.73;;;12.18;;
2650;SDS011;1335;48.180;16.342;2024-01-30T02:56:50;18.85;;;12.93;;
2650;SDS011;1335;48.180;16.342;2024-01-30T02:59:17;15.20;;;11.55;;
2650;SDS011;1335;48.180;16.342;2024-01-30T03:01:45;16.08;;;11.90;;
2650;SDS011;1335;48.180;16.342;2024-01-30T03:04:13;18.65;;;11.82;;
2650;SDS011;1335;48.180;16.342;2024-01-30T03:06:44;17.27;;;11.32;;
2650;SDS011;1335;48.180;16.342;2024-01-30T03:09:11;18.02;;;12.23;;
2650;SDS011;1335;48.180;16.342;2024-01-30T03:11:38;15.35;;;11.00;;
2650;SDS011;1335;48.180;16.342;2024-01-30T03:14:07;17.40;;;12.75;;
2650;SDS011;1335;48.180;16.342;2024-01-30T03:16:36;15.82;;;11.85;;
2650;SDS011;1335;48.180;16.342;2024-01-30T03:19:04;21.02;;;12.38;;
2650;SDS011;1335;48.180;16.342;2024-01-30T03:21:32;15.77;;;11.98;;
2650;SDS011;1335;48.180;16.342;2024-01-30T03:24:00;17.60;;;11.95;;
2650;SDS011;1335;48.180;16.342;2024-01-30T03:26:27;19.10;;;12.20;;
2650;SDS011;1335;48.180;16.342;2024-01-30T03:28:54;18.15;;;12.50;;
2650;SDS011;1335;48.180;16.342;2024-01-30T03:31:23;18.45;;;12.13;;
2650;SDS011;1335;48.180;16.342;2024-01-30T03:33:50;19.83;;;12.85;;
2650;SDS011;1335;48.180;16.342;2024-01-30T03:36:17;17.80;;;11.57;;
2650;SDS011;1335;48.180;16.342;2024-01-30T03:38:45;18.60;;;13.38;;
2650;SDS011;1335;48.180;16.342;2024-01-30T03:41:12;18.05;;;13.00;;
2650;SDS011;1335;48.180;16.342;2024-01-30T03:43:40;24.20;;;12.90;;
2650;SDS011;1335;48.180;16.342;2024-01-30T03:46:07;17.48;;;11.60;;
2650;SDS011;1335;48.180;16.342;2024-01-30T03:48:36;23.58;;;13.38;;
2650;SDS011;1335;48.180;16.342;2024-01-30T03:51:04;22.40;;;13.52;;
2650;SDS011;1335;48.180;16.342;2024-01-30T03:53:31;22.52;;;13.75;;
2650;SDS011;1335;48.180;16.342;2024-01-30T03:55:58;20.83;;;12.63;;
2650;SDS011;1335;48.180;16.342;2024-01-30T03:58:26;18.98;;;13.25;;
2650;SDS011;1335;48.180;16.342;2024-01-30T04:00:53;19.63;;;13.45;;
2650;SDS011;1335;48.180;16.342;2024-01-30T04:03:20;20.83;;;13.60;;
2650;SDS011;1335;48.180;16.342;2024-01-30T04:05:49;19.55;;;14.25;;
2650;SDS011;1335;48.180;16.342;2024-01-30T04:08:16;18.60;;;13.32;;
2650;SDS011;1335;48.180;16.342;2024-01-30T04:10:44;22.30;;;14.27;;
2650;SDS011;1335;48.180;16.342;2024-01-30T04:13:11;17.75;;;12.90;;
2650;SDS011;1335;48.180;16.342;2024-01-30T04:15:38;22.73;;;14.55;;
2650;SDS011;1335;48.180;16.342;2024-01-30T04:18:06;25.02;;;14.38;;
2650;SDS011;1335;48.180;16.342;2024-01-30T04:20:33;20.52;;;14.32;;
2650;SDS011;1335;48.180;16.342;2024-01-30T04:23:02;18.58;;;13.43;;
2650;SDS011;1335;48.180;16.342;2024-01-30T04:25:29;22.85;;;14.73;;
2650;SDS011;1335;48.180;16.342;2024-01-30T04:27:56;23.83;;;13.32;;
2650;SDS011;1335;48.180;16.342;2024-01-30T04:30:24;31.80;;;15.68;;
2650;SDS011;1335;48.180;16.342;2024-01-30T04:32:51;23.52;;;14.00;;
2650;SDS011;1335;48.180;16.342;2024-01-30T04:35:18;30.05;;;15.40;;
2650;SDS011;1335;48.180;16.342;2024-01-30T04:37:48;22.23;;;15.05;;
2650;SDS011;1335;48.180;16.342;2024-01-30T04:40:17;22.92;;;14.38;;
2650;SDS011;1335;48.180;16.342;2024-01-30T04:42:44;23.67;;;15.13;;
2650;SDS011;1335;48.180;16.342;2024-01-30T04:45:12;24.38;;;15.80;;
2650;SDS011;1335;48.180;16.342;2024-01-30T04:47:39;25.60;;;14.50;;
2650;SDS011;1335;48.180;16.342;2024-01-30T04:50:07;24.65;;;15.40;;
2650;SDS011;1335;48.180;16.342;2024-01-30T04:52:35;28.05;;;15.30;;
2650;SDS011;1335;48.180;16.342;2024-01-30T04:55:02;24.70;;;14.80;;
2650;SDS011;1335;48.180;16.342;2024-01-30T04:57:31;24.88;;;15.38;;
2650;SDS011;1335;48.180;16.342;2024-01-30T04:59:58;27.80;;;16.00;;
2650;SDS011;1335;48.180;16.342;2024-01-30T05:02:26;24.20;;;15.65;;
2650;SDS011;1335;48.180;16.342;2024-01-30T05:04:54;25.95;;;15.43;;
2650;SDS011;1335;48.180;16.342;2024-01-30T05:07:21;28.52;;;16.65;;
2650;SDS011;1335;48.180;16.342;2024-01-30T05:09:48;23.15;;;14.98;;
2650;SDS011;1335;48.180;16.342;2024-01-30T05:12:16;23.02;;;16.92;;
2650;SDS011;1335;48.180;16.342;2024-01-30T05:14:44;23.40;;;15.18;;
2650;SDS011;1335;48.180;16.342;2024-01-30T05:17:13;24.90;;;16.20;;
2650;SDS011;1335;48.180;16.342;2024-01-30T05:19:40;24.92;;;15.50;;
2650;SDS011;1335;48.180;16.342;2024-01-30T05:22:07;22.30;;;14.55;;
2650;SDS011;1335;48.180;16.342;2024-01-30T05:24:35;29.17;;;16.63;;
2650;SDS011;1335;48.180;16.342;2024-01-30T05:27:02;26.25;;;17.40;;
2650;SDS011;1335;48.180;16.342;2024-01-30T05:29:30;22.80;;;14.93;;
2650;SDS011;1335;48.180;16.342;2024-01-30T05:31:59;28.90;;;17.38;;
2650;SDS011;1335;48.180;16.342;2024-01-30T05:34:26;26.63;;;16.38;;
2650;SDS011;1335;48.180;16.342;2024-01-30T05:36:53;28.23;;;16.20;;
2650;SDS011;1335;48.180;16.342;2024-01-30T05:39:20;23.80;;;15.35;;
2650;SDS011;1335;48.180;16.342;2024-01-30T05:41:48;23.85;;;15.98;;
2650;SDS011;1335;48.180;16.342;2024-01-30T05:44:15;26.45;;;16.42;;
2650;SDS011;1335;48.180;16.342;2024-01-30T05:46:42;26.60;;;15.63;;
2650;SDS011;1335;48.180;16.342;2024-01-30T05:49:11;23.73;;;14.93;;
2650;SDS011;1335;48.180;16.342;2024-01-30T05:51:38;26.33;;;16.48;;
2650;SDS011;1335;48.180;16.342;2024-01-30T05:54:06;23.67;;;16.00;;
2650;SDS011;1335;48.180;16.342;2024-01-30T05:56:33;25.38;;;16.27;;
2650;SDS011;1335;48.180;16.342;2024-01-30T05:59:00;26.13;;;17.00;;
2650;SDS011;1335;48.180;16.342;2024-01-30T06:01:28;26.33;;;16.67;;
2650;SDS011;1335;48.180;16.342;2024-01-30T06:03:55;24.05;;;16.42;;
2650;SDS011;1335;48.180;16.342;2024-01-30T06:06:24;27.67;;;15.52;;
2650;SDS011;1335;48.180;16.342;2024-01-30T06:08:51;26.35;;;15.88;;
2650;SDS011;1335;48.180;16.342;2024-01-30T06:11:20;25.25;;;16.38;;
2650;SDS011;1335;48.180;16.342;2024-01-30T06:13:47;28.77;;;17.73;;
2650;SDS011;1335;48.180;16.342;2024-01-30T06:16:15;25.50;;;16.02;;
2650;SDS011;1335;48.180;16.342;2024-01-30T06:18:42;27.67;;;15.82;;
2650;SDS011;1335;48.180;16.342;2024-01-30T06:21:09;30.52;;;16.63;;
2650;SDS011;1335;48.180;16.342;2024-01-30T06:23:38;28.05;;;16.48;;
2650;SDS011;1335;48.180;16.342;2024-01-30T06:26:06;32.90;;;17.77;;
2650;SDS011;1335;48.180;16.342;2024-01-30T06:28:33;30.38;;;16.98;;
2650;SDS011;1335;48.180;16.342;2024-01-30T06:31:00;24.98;;;15.80;;
2650;SDS011;1335;48.180;16.342;2024-01-30T06:33:28;27.98;;;17.70;;
2650;SDS011;1335;48.180;16.342;2024-01-30T06:35:55;22.45;;;15.77;;
2650;SDS011;1335;48.180;16.342;2024-01-30T06:38:23;28.75;;;16.73;;
2650;SDS011;1335;48.180;16.342;2024-01-30T06:40:51;28.70;;;16.73;;
2650;SDS011;1335;48.180;16.342;2024-01-30T06:43:19;29.95;;;16.60;;
2650;SDS011;1335;48.180;16.342;2024-01-30T06:45:46;26.38;;;15.75;;
2650;SDS011;1335;48.180;16.342;2024-01-30T06:48:13;30.52;;;16.90;;
2650;SDS011;1335;48.180;16.342;2024-01-30T06:50:41;27.27;;;15.93;;
2650;SDS011;1335;48.180;16.342;2024-01-30T06:53:08;27.02;;;16.65;;
2650;SDS011;1335;48.180;16.342;2024-01-30T06:55:35;28.25;;;16.10;;
2650;SDS011;1335;48.180;16.342;2024-01-30T06:58:04;27.60;;;16.55;;
2650;SDS011;1335;48.180;16.342;2024-01-30T07:00:31;30.55;;;18.50;;
2650;SDS011;1335;48.180;16.342;2024-01-30T07:02:59;29.55;;;16.33;;
2650;SDS011;1335;48.180;16.342;2024-01-30T07:05:26;27.30;;;16.42;;
2650;SDS011;1335;48.180;16.342;2024-01-30T07:07:53;22.30;;;16.10;;
2650;SDS011;1335;48.180;16.342;2024-01-30T07:10:21;27.20;;;17.08;;
2650;SDS011;1335;48.180;16.342;2024-01-30T07:12:48;22.02;;;15.00;;
2650;SDS011;1335;48.180;16.342;2024-01-30T07:15:17;31.73;;;16.38;;
2650;SDS011;1335;48.180;16.342;2024-01-30T07:17:45;23.63;;;15.50;;
2650;SDS011;1335;48.180;16.342;2024-01-30T07:20:12;33.90;;;16.38;;
2650;SDS011;1335;48.180;16.342;2024-01-30T07:22:40;26.17;;;14.77;;
2650;SDS011;1335;48.180;16.342;2024-01-30T07:25:07;25.85;;;14.80;;
2650;SDS011;1335;48.180;16.342;2024-01-30T07:27:35;31.52;;;17.17;;
2650;SDS011;1335;48.180;16.342;2024-01-30T07:30:03;27.08;;;16.13;;
2650;SDS011;1335;48.180;16.342;2024-01-30T07:32:31;20.48;;;14.38;;
2650;SDS011;1335;48.180;16.342;2024-01-30T07:34:59;25.30;;;14.57;;
2650;SDS011;1335;48.180;16.342;2024-01-30T07:37:26;17.30;;;12.67;;
2650;SDS011;1335;48.180;16.342;2024-01-30T07:39:54;20.53;;;12.17;;
2650;SDS011;1335;48.180;16.342;2024-01-30T07:42:21;19.00;;;11.97;;
2650;SDS011;1335;48.180;16.342;2024-01-30T07:44:48;16.03;;;11.00;;
2650;SDS011;1335;48.180;16.342;2024-01-30T07:47:16;19.03;;;11.47;;
2650;SDS011;1335;48.180;16.342;2024-01-30T07:49:44;14.63;;;11.60;;
2650;SDS011;1335;48.180;16.342;2024-01-30T07:52:12;14.40;;;11.43;;
2650;SDS011;1335;48.180;16.342;2024-01-30T07:54:39;15.30;;;11.70;;
2650;SDS011;1335;48.180;16.342;2024-01-30T07:57:06;14.47;;;11.73;;
2650;SDS011;1335;48.180;16.342;2024-01-30T07:59:34;13.60;;;11.60;;
2650;SDS011;1335;48.180;16.342;2024-01-30T08:02:01;19.13;;;11.07;;
2650;SDS011;1335;48.180;16.342;2024-01-30T08:04:28;14.60;;;11.10;;
2650;SDS011;1335;48.180;16.342;2024-01-30T08:06:57;14.50;;;11.07;;
2650;SDS011;1335;48.180;16.342;2024-01-30T08:09:24;15.97;;;10.60;;
2650;SDS011;1335;48.180;16.342;2024-01-30T08:11:52;12.80;;;10.60;;
2650;SDS011;1335;48.180;16.342;2024-01-30T08:14:19;15.00;;;10.30;;
2650;SDS011;1335;48.180;16.342;2024-01-30T08:16:46;16.00;;;11.90;;
2650;SDS011;1335;48.180;16.342;2024-01-30T08:19:14;13.13;;;10.27;;
2650;SDS011;1335;48.180;16.342;2024-01-30T08:21:41;16.03;;;11.60;;
2650;SDS011;1335;48.180;16.342;2024-01-30T08:24:10;15.00;;;11.23;;
2650;SDS011;1335;48.180;16.342;2024-01-30T08:26:37;16.87;;;10.80;;
2650;SDS011;1335;48.180;16.342;2024-01-30T08:29:04;15.47;;;9.77;;
2650;SDS011;1335;48.180;16.342;2024-01-30T08:31:32;14.07;;;10.70;;
2650;SDS011;1335;48.180;16.342;2024-01-30T08:33:59;16.07;;;11.47;;
2650;SDS011;1335;48.180;16.342;2024-01-30T08:36:26;13.07;;;10.73;;
2650;SDS011;1335;48.180;16.342;2024-01-30T08:38:54;14.63;;;12.37;;
2650;SDS011;1335;48.180;16.342;2024-01-30T08:41:22;11.60;;;9.63;;
2650;SDS011;1335;48.180;16.342;2024-01-30T08:43:50;14.80;;;10.60;;
2650;SDS011;1335;48.180;16.342;2024-01-30T08:46:17;16.30;;;11.43;;
2650;SDS011;1335;48.180;16.342;2024-01-30T08:48:45;16.10;;;10.20;;
2650;SDS011;1335;48.180;16.342;2024-01-30T08:51:13;15.40;;;10.83;;
2650;SDS011;1335;48.180;16.342;2024-01-30T08:53:40;14.03;;;11.00;;
2650;SDS011;1335;48.180;16.342;2024-01-30T08:56:08;14.00;;;10.53;;
2650;SDS011;1335;48.180;16.342;2024-01-30T08:58:36;14.70;;;11.40;;
2650;SDS011;1335;48.180;16.342;2024-01-30T09:01:04;14.93;;;10.90;;
2650;SDS011;1335;48.180;16.342;2024-01-30T09:03:31;12.10;;;10.73;;
2650;SDS011;1335;48.180;16.342;2024-01-30T09:05:59;13.30;;;10.83;;
2650;SDS011;1335;48.180;16.342;2024-01-30T09:08:26;14.23;;;10.97;;
2650;SDS011;1335;48.180;16.342;2024-01-30T09:10:53;14.00;;;10.90;;
2650;SDS011;1335;48.180;16.342;2024-01-30T09:13:21;13.07;;;10.70;;
2650;SDS011;1335;48.180;16.342;2024-01-30T09:15:50;13.50;;;11.57;;
2650;SDS011;1335;48.180;16.342;2024-01-30T09:18:18;13.83;;;10.40;;
2650;SDS011;1335;48.180;16.342;2024-01-30T09:20:45;12.80;;;10.10;;
2650;SDS011;1335;48.180;16.342;2024-01-30T09:23:12;14.10;;;10.80;;
2650;SDS011;1335;48.180;16.342;2024-01-30T09:25:40;12.93;;;10.40;;
2650;SDS011;1335;48.180;16.342;2024-01-30T09:28:07;15.50;;;11.00;;
2650;SDS011;1335;48.180;16.342;2024-01-30T09:30:34;14.57;;;9.97;;
2650;SDS011;1335;48.180;16.342;2024-01-30T09:33:03;15.93;;;9.63;;
2650;SDS011;1335;48.180;16.342;2024-01-30T09:35:31;14.17;;;11.20;;
2650;SDS011;1335;48.180;16.342;2024-01-30T09:37:58;14.53;;;10.17;;
2650;SDS011;1335;48.180;16.342;2024-01-30T09:40:26;13.73;;;10.50;;
2650;SDS011;1335;48.180;16.342;2024-01-30T09:42:53;11.27;;;9.70;;
2650;SDS011;1335;48.180;16.342;2024-01-30T09:45:23;12.27;;;9.63;;
2650;SDS011;1335;48.180;16.342;2024-01-30T09:47:50;11.57;;;10.37;;
2650;SDS011;1335;48.180;16.342;2024-01-30T09:50:19;13.23;;;10.30;;
2650;SDS011;1335;48.180;16.342;2024-01-30T09:52:47;13.00;;;10.77;;
2650;SDS011;1335;48.180;16.342;2024-01-30T09:55:15;15.10;;;10.97;;
2650;SDS011;1335;48.180;16.342;2024-01-30T09:57:42;10.83;;;9.73;;
2650;SDS011;1335;48.180;16.342;2024-01-30T10:00:10;16.20;;;11.47;;
2650;SDS011;1335;48.180;16.342;2024-01-30T10:02:38;16.63;;;10.67;;
2650;SDS011;1335;48.180;16.342;2024-01-30T10:05:05;12.63;;;11.30;;
2650;SDS011;1335;48.180;16.342;2024-01-30T10:07:34;14.63;;;10.90;;
2650;SDS011;1335;48.180;16.342;2024-01-30T10:10:01;13.00;;;10.93;;
2650;SDS011;1335;48.180;16.342;2024-01-30T10:12:29;12.43;;;10.50;;
2650;SDS011;1335;48.180;16.342;2024-01-30T10:14:56;12.67;;;11.13;;
2650;SDS011;1335;48.180;16.342;2024-01-30T10:17:24;11.50;;;10.33;;
2650;SDS011;1335;48.180;16.342;2024-01-30T10:19:52;13.57;;;10.77;;
2650;SDS011;1335;48.180;16.342;2024-01-30T10:22:19;11.77;;;10.17;;
2650;SDS011;1335;48.180;16.342;2024-01-30T10:24:49;11.90;;;10.60;;
2650;SDS011;1335;48.180;16.342;2024-01-30T10:27:16;16.33;;;10.93;;
2650;SDS011;1335;48.180;16.342;2024-01-30T10:29:48;15.50;;;10.83;;
2650;SDS011;1335;48.180;16.342;2024-01-30T10:32:16;16.40;;;10.50;;
2650;SDS011;1335;48.180;16.342;2024-01-30T10:34:44;12.67;;;11.30;;
2650;SDS011;1335;48.180;16.342;2024-01-30T10:37:11;15.20;;;10.87;;
2650;SDS011;1335;48.180;16.342;2024-01-30T10:39:40;14.13;;;12.17;;
2650;SDS011;1335;48.180;16.342;2024-01-30T10:42:11;13.47;;;11.53;;
2650;SDS011;1335;48.180;16.342;2024-01-30T10:44:43;14.00;;;11.10;;
2650;SDS011;1335;48.180;16.342;2024-01-30T10:47:11;13.60;;;9.80;;
2650;SDS011;1335;48.180;16.342;2024-01-30T10:49:39;15.27;;;10.10;;
2650;SDS011;1335;48.180;16.342;2024-01-30T10:52:09;13.03;;;10.97;;
2650;SDS011;1335;48.180;16.342;2024-01-30T10:54:38;13.40;;;11.67;;
2650;SDS011;1335;48.180;16.342;2024-01-30T10:57:07;13.33;;;10.97;;
2650;SDS011;1335;48.180;16.342;2024-01-30T10:59:36;12.57;;;10.73;;
2650;SDS011;1335;48.180;16.342;2024-01-30T11:02:03;11.00;;;9.30;;
2650;SDS011;1335;48.180;16.342;2024-01-30T11:04:35;14.73;;;10.47;;
2650;SDS011;1335;48.180;16.342;2024-01-30T11:07:03;11.07;;;9.40;;
2650;SDS011;1335;48.180;16.342;2024-01-30T11:09:31;8.87;;;7.90;;
2650;SDS011;1335;48.180;16.342;2024-01-30T11:12:03;12.60;;;9.57;;
2650;SDS011;1335;48.180;16.342;2024-01-30T11:14:31;13.90;;;8.50;;
2650;SDS011;1335;48.180;16.342;2024-01-30T11:16:59;10.63;;;8.97;;
2650;SDS011;1335;48.180;16.342;2024-01-30T11:19:30;11.33;;;9.30;;
2650;SDS011;1335;48.180;16.342;2024-01-30T11:21:58;9.90;;;7.90;;
2650;SDS011;1335;48.180;16.342;2024-01-30T11:24:27;11.87;;;8.43;;
2650;SDS011;1335;48.180;16.342;2024-01-30T11:26:55;12.63;;;9.20;;
2650;SDS011;1335;48.180;16.342;2024-01-30T11:29:24;11.00;;;9.90;;
2650;SDS011;1335;48.180;16.342;2024-01-30T11:31:51;11.07;;;8.87;;
2650;SDS011;1335;48.180;16.342;2024-01-30T11:34:21;15.00;;;9.27;;
2650;SDS011;1335;48.180;16.342;2024-01-30T11:36:51;9.47;;;8.33;;
2650;SDS011;1335;48.180;16.342;2024-01-30T11:39:23;10.70;;;7.50;;
2650;SDS011;1335;48.180;16.342;2024-01-30T11:41:51;9.30;;;7.87;;
2650;SDS011;1335;48.180;16.342;2024-01-30T11:44:19;12.30;;;9.70;;
2650;SDS011;1335;48.180;16.342;2024-01-30T11:46:47;11.00;;;9.30;;
2650;SDS011;1335;48.180;16.342;2024-01-30T11:49:14;10.20;;;8.63;;
2650;SDS011;1335;48.180;16.342;2024-01-30T11:51:43;10.40;;;9.30;;
2650;SDS011;1335;48.180;16.342;2024-01-30T11:54:10;9.83;;;8.60;;
2650;SDS011;1335;48.180;16.342;2024-01-30T11:56:37;13.97;;;9.30;;
2650;SDS011;1335;48.180;16.342;2024-01-30T11:59:05;10.93;;;8.73;;
2650;SDS011;1335;48.180;16.342;2024-01-30T12:01:32;12.50;;;9.67;;
2650;SDS011;1335;48.180;16.342;2024-01-30T12:04:00;11.57;;;9.10;;
2650;SDS011;1335;48.180;16.342;2024-01-30T12:06:28;11.00;;;9.90;;
2650;SDS011;1335;48.180;16.342;2024-01-30T12:08:58;11.87;;;8.60;;
2650;SDS011;1335;48.180;16.342;2024-01-30T12:11:25;10.20;;;8.53;;
2650;SDS011;1335;48.180;16.342;2024-01-30T12:13:52;11.93;;;8.87;;
2650;SDS011;1335;48.180;16.342;2024-01-30T12:16:20;11.67;;;9.03;;
2650;SDS011;1335;48.180;16.342;2024-01-30T12:18:47;13.20;;;10.00;;
2650;SDS011;1335;48.180;16.342;2024-01-30T12:21:16;10.27;;;8.23;;
2650;SDS011;1335;48.180;16.342;2024-01-30T12:23:44;10.10;;;8.70;;
2650;SDS011;1335;48.180;16.342;2024-01-30T12:26:13;15.53;;;9.93;;
2650;SDS011;1335;48.180;16.342;2024-01-30T12:28:47;10.00;;;7.90;;
2650;SDS011;1335;48.180;16.342;2024-01-30T12:31:15;13.90;;;9.33;;
2650;SDS011;1335;48.180;16.342;2024-01-30T12:33:42;12.20;;;9.27;;
2650;SDS011;1335;48.180;16.342;2024-01-30T12:36:09;9.97;;;8.90;;
2650;SDS011;1335;48.180;16.342;2024-01-30T12:38:38;10.77;;;7.57;;
2650;SDS011;1335;48.180;16.342;2024-01-30T12:41:06;12.50;;;9.07;;
2650;SDS011;1335;48.180;16.342;2024-01-30T12:43:36;15.20;;;10.30;;
2650;SDS011;1335;48.180;16.342;2024-01-30T12:46:04;11.47;;;9.33;;
2650;SDS011;1335;48.180;16.342;2024-01-30T12:48:31;15.30;;;9.17;;
2650;SDS011;1335;48.180;16.342;2024-01-30T12:50:59;13.20;;;9.60;;
2650;SDS011;1335;48.180;16.342;2024-01-30T12:53:26;10.00;;;9.00;;
2650;SDS011;1335;48.180;16.342;2024-01-30T12:55:54;11.67;;;7.90;;
2650;SDS011;1335;48.180;16.342;2024-01-30T12:58:21;9.47;;;8.50;;
2650;SDS011;1335;48.180;16.342;2024-01-30T13:00:50;10.13;;;8.87;;
2650;SDS011;1335;48.180;16.342;2024-01-30T13:03:17;14.03;;;9.97;;
2650;SDS011;1335;48.180;16.342;2024-01-30T13:05:44;10.23;;;8.67;;
2650;SDS011;1335;48.180;16.342;2024-01-30T13:08:12;9.67;;;8.70;;
2650;SDS011;1335;48.180;16.342;2024-01-30T13:10:39;12.67;;;8.67;;
2650;SDS011;1335;48.180;16.342;2024-01-30T13:13:06;13.67;;;8.10;;
2650;SDS011;1335;48.180;16.342;2024-01-30T13:15:34;11.17;;;8.50;;
2650;SDS011;1335;48.180;16.342;2024-01-30T13:18:03;10.80;;;8.90;;
2650;SDS011;1335;48.180;16.342;2024-01-30T13:20:31;11.23;;;9.30;;
2650;SDS011;1335;48.180;16.342;2024-01-30T13:22:58;10.73;;;8.27;;
2650;SDS011;1335;48.180;16.342;2024-01-30T13:25:26;10.83;;;8.20;;
2650;SDS011;1335;48.180;16.342;2024-01-30T13:27:53;10.43;;;8.60;;
2650;SDS011;1335;48.180;16.342;2024-01-30T13:30:20;9.30;;;7.50;;
2650;SDS011;1335;48.180;16.342;2024-01-30T13:32:48;11.50;;;8.93;;
2650;SDS011;1335;48.180;16.342;2024-01-30T13:35:16;12.00;;;8.87;;
2650;SDS011;1335;48.180;16.342;2024-01-30T13:37:44;11.50;;;9.03;;
2650;SDS011;1335;48.180;16.342;2024-01-30T13:40:13;18.23;;;9.30;;
2650;SDS011;1335;48.180;16.342;2024-01-30T13:42:41;12.87;;;7.93;;
2650;SDS011;1335;48.180;16.342;2024-01-30T13:45:08;11.80;;;9.30;;
2650;SDS011;1335;48.180;16.342;2024-01-30T13:47:36;11.43;;;9.43;;
2650;SDS011;1335;48.180;16.342;2024-01-30T13:50:03;15.40;;;8.70;;
2650;SDS011;1335;48.180;16.342;2024-01-30T13:52:33;13.10;;;8.83;;
2650;SDS011;1335;48.180;16.342;2024-01-30T13:55:00;10.10;;;8.53;;
2650;SDS011;1335;48.180;16.342;2024-01-30T13:57:27;10.83;;;8.83;;
2650;SDS011;1335;48.180;16.342;2024-01-30T13:59:58;12.17;;;8.73;;
2650;SDS011;1335;48.180;16.342;2024-01-30T14:02:25;14.53;;;9.60;;
2650;SDS011;1335;48.180;16.342;2024-01-30T14:04:53;10.23;;;8.13;;
2650;SDS011;1335;48.180;16.342;2024-01-30T14:07:20;12.50;;;8.50;;
2650;SDS011;1335;48.180;16.342;2024-01-30T14:09:49;15.90;;;8.97;;
2650;SDS011;1335;48.180;16.342;2024-01-30T14:12:16;12.87;;;9.00;;
2650;SDS011;1335;48.180;16.342;2024-01-30T14:14:43;10.70;;;8.40;;
2650;SDS011;1335;48.180;16.342;2024-01-30T14:17:11;11.83;;;8.97;;
2650;SDS011;1335;48.180;16.342;2024-01-30T14:19:38;13.23;;;9.37;;
2650;SDS011;1335;48.180;16.342;2024-01-30T14:22:05;12.13;;;7.97;;
2650;SDS011;1335;48.180;16.342;2024-01-30T14:24:33;13.70;;;9.20;;
2650;SDS011;1335;48.180;16.342;2024-01-30T14:27:03;13.77;;;7.93;;
2650;SDS011;1335;48.180;16.342;2024-01-30T14:29:32;12.60;;;8.77;;
2650;SDS011;1335;48.180;16.342;2024-01-30T14:32:00;12.87;;;8.63;;
2650;SDS011;1335;48.180;16.342;2024-01-30T14:34:27;9.97;;;7.50;;
2650;SDS011;1335;48.180;16.342;2024-01-30T14:36:54;10.83;;;8.43;;
2650;SDS011;1335;48.180;16.342;2024-01-30T14:39:22;8.80;;;7.30;;
2650;SDS011;1335;48.180;16.342;2024-01-30T14:41:49;10.37;;;7.83;;